Terminal Aerodrome Forecast
Issued by NWS

Home | Current Version | Previous Version | Graphics & Text | Print | Product List | Glossary On
Versions: 1 2 3 4 5 6 7 8 9 10 11 12 13 14
000
FTUS43 KMPX 220025 AAB
TAFAXN
TAF AMD
KAXN 220025Z 2200/2224 19012KT P6SM VCTS BKN050CB BKN100
      TEMPO 2201/2202 VRB20G50KT 2SM TSRA BKN015CB OVC030
     FM220400 24006KT P6SM SCT100
     FM220700 33006KT P6SM SKC
     FM221300 05005KT P6SM OVC120
     FM221700 18005KT P6SM SCT070 BKN120=

USA.gov is the U.S. government's official web portal to all federal, state and local government web resources and services.